Time;durP1;ratioP1;P1;durP2;ratioP2;P2;SDS_P1;SDS_P2;PMS_P1;PMS_P2;Temp;Humidity;BMP_temperature;BMP_pressure;BME280_temperature;BME280_humidity;BME280_pressure;Samples;Min_cycle;Max_cycle;Signal;HPM_P1;HPM_P2
2023/05/22 00:01:07;;;;;;;28.88;24.67;;;;;;;;;;5052849;28;20044;-72
2023/05/22 00:03:35;;;;;;;30.98;24.70;;;;;;;;;;5054531;28;20064;-72
2023/05/22 00:06:01;;;;;;;28.17;24.02;;;;;;;;;;5054605;28;20504;-73
2023/05/22 00:08:27;;;;;;;28.83;24.75;;;;;;;;;;5054397;28;20032;-73
2023/05/22 00:10:54;;;;;;;33.80;23.90;;;;;;;;;;5053933;28;20066;-72
2023/05/22 00:13:20;;;;;;;28.92;24.17;;;;;;;;;;5056855;28;20036;-72
2023/05/22 00:15:48;;;;;;;29.23;24.08;;;;;;;;;;5039025;28;20040;-72
2023/05/22 00:18:14;;;;;;;29.55;25.92;;;;;;;;;;5054300;28;20042;-72
2023/05/22 00:20:41;;;;;;;31.70;25.88;;;;;;;;;;5055280;28;20408;-72
2023/05/22 00:23:10;;;;;;;29.15;25.17;;;;;;;;;;5055154;28;22067;-72
2023/05/22 00:25:37;;;;;;;38.92;26.10;;;;;;;;;;5057268;28;20044;-72
2023/05/22 00:28:03;;;;;;;28.83;23.80;;;;;;;;;;5055381;28;20040;-73
2023/05/22 00:30:29;;;;;;;27.80;24.27;;;;;;;;;;5054393;28;20043;-73
2023/05/22 00:32:56;;;;;;;32.95;25.05;;;;;;;;;;5038930;28;20060;-73
2023/05/22 00:35:22;;;;;;;28.20;23.50;;;;;;;;;;5055012;28;20054;-73
2023/05/22 00:37:48;;;;;;;30.58;23.58;;;;;;;;;;5053893;28;20133;-72
2023/05/22 00:40:14;;;;;;;25.70;22.90;;;;;;;;;;5054416;28;20058;-71
2023/05/22 00:42:42;;;;;;;28.42;23.55;;;;;;;;;;5052978;28;20052;-72
2023/05/22 00:45:09;;;;;;;27.73;22.77;;;;;;;;;;5056491;28;20408;-72
2023/05/22 00:47:36;;;;;;;25.35;22.60;;;;;;;;;;5053067;28;20045;-72
2023/05/22 00:50:02;;;;;;;34.42;22.73;;;;;;;;;;5057946;28;20036;-72
2023/05/22 00:52:28;;;;;;;24.55;21.92;;;;;;;;;;5036658;28;20492;-72
2023/05/22 00:54:54;;;;;;;27.73;22.75;;;;;;;;;;5056863;28;20039;-71
2023/05/22 00:57:20;;;;;;;24.63;22.00;;;;;;;;;;5059606;28;20126;-72
2023/05/22 00:59:47;;;;;;;24.83;21.63;;;;;;;;;;5061798;28;20044;-72
2023/05/22 01:02:16;;;;;;;39.63;22.50;;;;;;;;;;5062514;28;20386;-73
2023/05/22 01:04:47;;;;;;;25.27;21.67;;;;;;;;;;5067376;28;20051;-72
2023/05/22 01:07:15;;;;;;;24.17;21.52;;;;;;;;;;5069042;28;20189;-73
2023/05/22 01:09:41;;;;;;;26.35;22.00;;;;;;;;;;5071616;28;20533;-72
2023/05/22 01:12:34;;;;;;;24.42;21.77;;;;;;;;;;5071996;28;20059;-73
2023/05/22 01:15:17;;;;;;;26.25;21.85;;;;;;;;;;5056017;28;20056;-72
2023/05/22 01:17:51;;;;;;;24.38;20.45;;;;;;;;;;5063437;28;20068;-73
2023/05/22 01:20:18;;;;;;;24.20;21.63;;;;;;;;;;5072082;28;20408;-72
2023/05/22 01:22:57;;;;;;;24.50;20.50;;;;;;;;;;5072423;28;20051;-71
2023/05/22 01:25:35;;;;;;;26.60;20.13;;;;;;;;;;5071013;28;20040;-72
2023/05/22 01:28:20;;;;;;;25.60;21.27;;;;;;;;;;5060398;28;20040;-72
2023/05/22 01:31:00;;;;;;;23.55;20.98;;;;;;;;;;5052589;28;20769;-72
2023/05/22 01:33:27;;;;;;;24.88;21.90;;;;;;;;;;5053441;28;20059;-72
2023/05/22 01:35:56;;;;;;;25.52;22.25;;;;;;;;;;5054475;28;20771;-72
2023/05/22 01:38:22;;;;;;;22.95;20.48;;;;;;;;;;5032954;28;20047;-72
2023/05/22 01:40:49;;;;;;;24.25;20.70;;;;;;;;;;5050574;28;20062;-72
2023/05/22 01:43:15;;;;;;;23.58;21.05;;;;;;;;;;5053583;28;20063;-72
2023/05/22 01:45:41;;;;;;;22.80;20.45;;;;;;;;;;5066992;28;20205;-72
2023/05/22 01:48:07;;;;;;;23.60;21.10;;;;;;;;;;5052027;28;20138;-72
2023/05/22 01:50:34;;;;;;;24.00;21.15;;;;;;;;;;5053803;28;20093;-73
2023/05/22 01:53:00;;;;;;;23.67;20.58;;;;;;;;;;5056306;28;20032;-72
2023/05/22 01:55:34;;;;;;;25.35;21.50;;;;;;;;;;5049809;28;20039;-73
2023/05/22 01:58:07;;;;;;;24.23;21.60;;;;;;;;;;5050891;28;20446;-72
2023/05/22 02:00:34;;;;;;;25.15;20.40;;;;;;;;;;5050504;28;20052;-72
2023/05/22 02:03:06;;;;;;;26.13;21.17;;;;;;;;;;5051518;28;20111;-72
2023/05/22 02:05:34;;;;;;;23.63;21.13;;;;;;;;;;5051880;28;20032;-72
2023/05/22 02:08:01;;;;;;;24.65;22.05;;;;;;;;;;5050329;28;20051;-71
2023/05/22 02:10:28;;;;;;;28.42;23.85;;;;;;;;;;5053577;28;20076;-73
2023/05/22 02:12:55;;;;;;;26.25;21.65;;;;;;;;;;5051294;28;20056;-72
2023/05/22 02:15:21;;;;;;;28.70;23.23;;;;;;;;;;5054568;28;20044;-72
2023/05/22 02:17:48;;;;;;;28.85;23.95;;;;;;;;;;5054515;28;20652;-72
2023/05/22 02:20:15;;;;;;;26.15;23.45;;;;;;;;;;5051285;28;20052;-72
2023/05/22 02:22:45;;;;;;;30.85;24.70;;;;;;;;;;5052768;28;20041;-73
2023/05/22 02:25:15;;;;;;;26.95;23.42;;;;;;;;;;5054845;28;21081;-73
2023/05/22 02:27:42;;;;;;;30.15;24.75;;;;;;;;;;5053901;28;20542;-72
2023/05/22 02:30:08;;;;;;;26.65;23.98;;;;;;;;;;5051749;28;20044;-72
2023/05/22 02:32:34;;;;;;;28.13;24.88;;;;;;;;;;5050582;28;20131;-72
2023/05/22 02:35:01;;;;;;;30.58;26.65;;;;;;;;;;5052201;28;20059;-71
2023/05/22 02:37:27;;;;;;;29.17;25.98;;;;;;;;;;5052015;28;20083;-72
2023/05/22 02:39:53;;;;;;;31.42;27.05;;;;;;;;;;5053106;28;20568;-72
2023/05/22 02:42:19;;;;;;;30.33;26.67;;;;;;;;;;5051990;28;20040;-73
2023/05/22 02:44:45;;;;;;;35.53;27.25;;;;;;;;;;5052429;28;20123;-73
2023/05/22 02:47:11;;;;;;;32.05;27.20;;;;;;;;;;5056610;28;21401;-73
2023/05/22 02:49:37;;;;;;;31.88;27.55;;;;;;;;;;5051237;28;20085;-72
2023/05/22 02:52:03;;;;;;;31.23;27.42;;;;;;;;;;5055510;28;20055;-73
2023/05/22 02:54:29;;;;;;;30.83;27.25;;;;;;;;;;5055220;28;20048;-73
2023/05/22 02:56:55;;;;;;;33.60;27.90;;;;;;;;;;5053505;28;20067;-73
2023/05/22 02:59:22;;;;;;;32.72;27.85;;;;;;;;;;5055256;28;20040;-73
2023/05/22 03:01:48;;;;;;;32.53;28.15;;;;;;;;;;5055666;28;20961;-72
2023/05/22 03:04:14;;;;;;;31.40;28.00;;;;;;;;;;5053848;28;20138;-72
2023/05/22 03:06:40;;;;;;;36.28;27.75;;;;;;;;;;5052032;28;20401;-73
2023/05/22 03:09:07;;;;;;;39.20;29.55;;;;;;;;;;5055588;28;20504;-72
2023/05/22 03:11:33;;;;;;;36.35;28.30;;;;;;;;;;5050911;28;20056;-72
2023/05/22 03:13:59;;;;;;;33.65;27.83;;;;;;;;;;5051961;28;20170;-72
2023/05/22 03:16:26;;;;;;;37.13;29.55;;;;;;;;;;5052699;28;20137;-72
2023/05/22 03:19:06;;;;;;;38.20;31.05;;;;;;;;;;5068022;28;20044;-72
2023/05/22 03:21:32;;;;;;;37.42;30.48;;;;;;;;;;5049945;28;20071;-72
2023/05/22 03:23:59;;;;;;;40.75;30.98;;;;;;;;;;5052048;28;20052;-72
2023/05/22 03:26:27;;;;;;;43.63;30.60;;;;;;;;;;5051710;28;20048;-72
2023/05/22 03:28:53;;;;;;;42.20;30.83;;;;;;;;;;5051355;28;20044;-72
2023/05/22 03:31:19;;;;;;;41.97;32.10;;;;;;;;;;5050128;28;20399;-72
2023/05/22 03:33:45;;;;;;;44.08;30.58;;;;;;;;;;5053011;28;20104;-72
2023/05/22 03:36:11;;;;;;;38.85;31.55;;;;;;;;;;5032130;28;20490;-72
2023/05/22 03:38:37;;;;;;;40.30;30.35;;;;;;;;;;5051322;28;20047;-72
2023/05/22 03:41:03;;;;;;;40.47;31.10;;;;;;;;;;5053648;28;20048;-72
2023/05/22 03:43:29;;;;;;;38.63;31.35;;;;;;;;;;5070732;28;20130;-72
2023/05/22 03:45:58;;;;;;;39.67;32.05;;;;;;;;;;5056163;28;20084;-72
2023/05/22 03:48:24;;;;;;;37.78;29.50;;;;;;;;;;5060652;28;20136;-72
2023/05/22 03:50:50;;;;;;;38.80;31.17;;;;;;;;;;5059935;28;20146;-73
2023/05/22 03:53:16;;;;;;;40.13;30.23;;;;;;;;;;5057447;28;20040;-72
2023/05/22 03:55:43;;;;;;;37.00;29.88;;;;;;;;;;5057627;28;20068;-72
2023/05/22 03:58:09;;;;;;;35.35;29.20;;;;;;;;;;5060335;28;20048;-72
2023/05/22 04:00:37;;;;;;;37.67;27.30;;;;;;;;;;5062742;28;20051;-72
2023/05/22 04:03:03;;;;;;;39.15;26.88;;;;;;;;;;5060855;28;20115;-72
2023/05/22 04:05:30;;;;;;;32.15;25.85;;;;;;;;;;5074149;27;20651;-72
2023/05/22 04:07:57;;;;;;;35.25;25.13;;;;;;;;;;5059981;28;20875;-72
2023/05/22 04:10:23;;;;;;;27.70;22.20;;;;;;;;;;5062239;28;20163;-72
2023/05/22 04:12:49;;;;;;;30.35;23.25;;;;;;;;;;5043845;28;20067;-71
2023/05/22 04:15:16;;;;;;;28.92;22.45;;;;;;;;;;5063278;28;20044;-72
2023/05/22 04:17:42;;;;;;;29.27;23.40;;;;;;;;;;5044704;28;20076;-72
2023/05/22 04:20:08;;;;;;;31.70;23.20;;;;;;;;;;5061389;28;20040;-73
2023/05/22 04:22:34;;;;;;;28.23;21.75;;;;;;;;;;5063848;28;20494;-73
2023/05/22 04:25:00;;;;;;;26.42;20.75;;;;;;;;;;5062051;28;20040;-72
2023/05/22 04:27:28;;;;;;;25.25;20.58;;;;;;;;;;5062363;28;20036;-73
2023/05/22 04:29:54;;;;;;;28.73;21.65;;;;;;;;;;5062833;28;20048;-73
2023/05/22 04:32:22;;;;;;;26.52;20.08;;;;;;;;;;5057877;28;20044;-72
2023/05/22 04:34:51;;;;;;;26.10;21.10;;;;;;;;;;5054886;28;20452;-73
2023/05/22 04:37:19;;;;;;;23.75;20.30;;;;;;;;;;5044114;28;20044;-71
2023/05/22 04:39:46;;;;;;;24.90;20.15;;;;;;;;;;5070304;27;20051;-73
2023/05/22 04:42:13;;;;;;;24.27;20.35;;;;;;;;;;5051537;28;20048;-72
2023/05/22 04:44:40;;;;;;;25.52;19.92;;;;;;;;;;5073235;28;20106;-72
2023/05/22 04:47:10;;;;;;;25.98;19.60;;;;;;;;;;5055896;28;20141;-72
2023/05/22 04:49:36;;;;;;;28.63;19.92;;;;;;;;;;5057353;28;20062;-72
2023/05/22 04:52:03;;;;;;;29.70;19.55;;;;;;;;;;5058949;28;20067;-72
2023/05/22 04:54:30;;;;;;;26.42;19.08;;;;;;;;;;5055299;28;20054;-71
2023/05/22 04:56:56;;;;;;;22.52;19.02;;;;;;;;;;5058304;28;20075;-72
2023/05/22 04:59:22;;;;;;;23.60;19.30;;;;;;;;;;5045535;28;20138;-72
2023/05/22 05:01:49;;;;;;;30.42;17.77;;;;;;;;;;5062518;28;20090;-72
2023/05/22 05:04:16;;;;;;;25.10;18.35;;;;;;;;;;5058138;28;20041;-72
2023/05/22 05:06:42;;;;;;;22.33;18.25;;;;;;;;;;5057783;28;20051;-72
2023/05/22 05:09:08;;;;;;;21.60;17.42;;;;;;;;;;5059229;28;20044;-72
2023/05/22 05:11:34;;;;;;;26.73;18.15;;;;;;;;;;5062257;28;20394;-72
2023/05/22 05:14:01;;;;;;;23.83;16.55;;;;;;;;;;5056891;28;20043;-73
2023/05/22 05:16:27;;;;;;;20.65;17.33;;;;;;;;;;5060766;28;20127;-72
2023/05/22 05:18:58;;;;;;;27.52;17.25;;;;;;;;;;5065331;28;20047;-73
2023/05/22 05:21:26;;;;;;;29.10;16.88;;;;;;;;;;5048930;28;20063;-73
2023/05/22 05:23:52;;;;;;;22.10;15.48;;;;;;;;;;5070133;28;20238;-73
2023/05/22 05:26:20;;;;;;;22.20;15.50;;;;;;;;;;5068203;28;20718;-72
2023/05/22 05:28:46;;;;;;;35.30;15.40;;;;;;;;;;5067214;28;20138;-73
2023/05/22 05:31:12;;;;;;;22.08;16.30;;;;;;;;;;5049137;28;20152;-73
2023/05/22 05:33:38;;;;;;;26.70;16.25;;;;;;;;;;5068250;28;21036;-72
2023/05/22 05:36:05;;;;;;;23.48;16.70;;;;;;;;;;5066138;28;20047;-72
2023/05/22 05:38:31;;;;;;;24.27;16.55;;;;;;;;;;5053092;28;20417;-72
2023/05/22 05:40:57;;;;;;;20.23;15.82;;;;;;;;;;5053725;28;20750;-72
2023/05/22 05:43:24;;;;;;;21.20;16.65;;;;;;;;;;5056973;28;20060;-72
2023/05/22 05:45:50;;;;;;;24.27;16.17;;;;;;;;;;5057416;28;22761;-72
2023/05/22 05:48:16;;;;;;;22.67;16.10;;;;;;;;;;5055103;28;20052;-72
2023/05/22 05:50:42;;;;;;;20.35;14.85;;;;;;;;;;5057001;28;20054;-72
2023/05/22 05:53:08;;;;;;;29.20;13.93;;;;;;;;;;5065988;28;20256;-72
2023/05/22 05:55:35;;;;;;;28.10;15.35;;;;;;;;;;5063571;28;20100;-73
2023/05/22 05:58:01;;;;;;;21.98;13.95;;;;;;;;;;5041390;28;20047;-73
2023/05/22 06:00:27;;;;;;;23.10;14.63;;;;;;;;;;5056890;28;20048;-72
2023/05/22 06:02:53;;;;;;;18.85;13.73;;;;;;;;;;5060502;28;20044;-72
2023/05/22 06:05:19;;;;;;;19.23;12.93;;;;;;;;;;5060736;28;20071;-72
2023/05/22 06:07:47;;;;;;;28.95;13.55;;;;;;;;;;5057988;28;20044;-71
2023/05/22 06:10:13;;;;;;;26.35;13.13;;;;;;;;;;5057966;28;20242;-73
2023/05/22 06:12:39;;;;;;;18.73;12.20;;;;;;;;;;5056471;28;20044;-72
2023/05/22 06:15:08;;;;;;;21.90;12.20;;;;;;;;;;5073109;28;20041;-72
2023/05/22 06:17:36;;;;;;;21.65;11.38;;;;;;;;;;5058315;28;20637;-72
2023/05/22 06:20:04;;;;;;;24.08;11.23;;;;;;;;;;5059769;28;20043;-72
2023/05/22 06:22:34;;;;;;;24.80;10.93;;;;;;;;;;5057938;28;20097;-72
2023/05/22 06:25:00;;;;;;;25.65;11.73;;;;;;;;;;5059651;28;20036;-72
2023/05/22 06:27:26;;;;;;;28.00;11.30;;;;;;;;;;5059932;28;20173;-71
2023/05/22 06:29:53;;;;;;;26.58;11.48;;;;;;;;;;5058182;28;20040;-72
2023/05/22 06:32:19;;;;;;;28.05;12.25;;;;;;;;;;5057941;28;20759;-72
2023/05/22 06:34:46;;;;;;;20.95;9.98;;;;;;;;;;5055327;28;20059;-72
2023/05/22 06:37:12;;;;;;;26.13;11.52;;;;;;;;;;5053432;28;20154;-72
2023/05/22 06:39:39;;;;;;;21.50;10.50;;;;;;;;;;5053611;28;22178;-72
2023/05/22 06:42:05;;;;;;;32.85;10.13;;;;;;;;;;5056468;28;20040;-72
2023/05/22 06:44:31;;;;;;;22.45;9.85;;;;;;;;;;5073338;28;20209;-68
2023/05/22 06:46:58;;;;;;;24.38;9.77;;;;;;;;;;5057526;28;20040;-68
2023/05/22 06:49:25;;;;;;;28.63;9.90;;;;;;;;;;5056101;28;20048;-68
2023/05/22 06:51:51;;;;;;;21.27;9.60;;;;;;;;;;5057983;28;20090;-68
2023/05/22 06:54:18;;;;;;;30.02;10.20;;;;;;;;;;5055259;28;20522;-68
2023/05/22 06:56:45;;;;;;;31.15;11.40;;;;;;;;;;5058125;28;20126;-68
2023/05/22 06:59:11;;;;;;;38.65;12.02;;;;;;;;;;5056963;28;20097;-68
2023/05/22 07:01:37;;;;;;;41.80;12.73;;;;;;;;;;5058080;28;20117;-68
2023/05/22 07:04:07;;;;;;;37.88;10.90;;;;;;;;;;5058260;28;20396;-68
2023/05/22 07:06:37;;;;;;;34.25;11.77;;;;;;;;;;5057144;28;20673;-68
2023/05/22 07:09:07;;;;;;;34.08;11.52;;;;;;;;;;5057280;28;20115;-68
2023/05/22 07:11:34;;;;;;;31.33;11.20;;;;;;;;;;5059256;28;20121;-68
2023/05/22 07:14:01;;;;;;;40.35;12.52;;;;;;;;;;5057997;28;20040;-68
2023/05/22 07:16:28;;;;;;;28.80;10.98;;;;;;;;;;5058835;28;20066;-68
2023/05/22 07:18:55;;;;;;;33.42;11.48;;;;;;;;;;5056846;28;20049;-68
2023/05/22 07:21:23;;;;;;;30.88;12.40;;;;;;;;;;5056054;28;20051;-68
2023/05/22 07:23:51;;;;;;;26.23;10.68;;;;;;;;;;5057669;28;20519;-68
2023/05/22 07:26:17;;;;;;;30.05;11.38;;;;;;;;;;5059958;28;20117;-68
2023/05/22 07:28:43;;;;;;;31.38;11.77;;;;;;;;;;5059477;28;20099;-68
2023/05/22 07:31:09;;;;;;;36.38;12.52;;;;;;;;;;5062086;28;20044;-68
2023/05/22 07:33:35;;;;;;;33.08;11.73;;;;;;;;;;5059541;28;20063;-67
2023/05/22 07:36:01;;;;;;;29.95;11.60;;;;;;;;;;5062697;28;20098;-67
2023/05/22 07:38:28;;;;;;;37.28;13.60;;;;;;;;;;5062189;28;20411;-67
2023/05/22 07:40:54;;;;;;;42.78;13.50;;;;;;;;;;5061079;28;20040;-67
2023/05/22 07:43:20;;;;;;;42.35;14.40;;;;;;;;;;5062365;28;20075;-68
2023/05/22 07:45:46;;;;;;;35.08;13.85;;;;;;;;;;5059334;28;20049;-68
2023/05/22 07:48:12;;;;;;;35.72;13.73;;;;;;;;;;5064678;28;20040;-67
2023/05/22 07:50:38;;;;;;;35.92;14.35;;;;;;;;;;5058963;28;20164;-68
2023/05/22 07:53:05;;;;;;;36.40;13.40;;;;;;;;;;5060973;28;20042;-68
2023/05/22 07:55:31;;;;;;;34.25;14.43;;;;;;;;;;5061400;28;20078;-67
2023/05/22 07:57:57;;;;;;;41.67;15.82;;;;;;;;;;5062918;28;20032;-68
2023/05/22 08:00:24;;;;;;;40.60;14.93;;;;;;;;;;5062663;28;20048;-68
2023/05/22 08:02:50;;;;;;;41.85;15.23;;;;;;;;;;5059590;28;20059;-68
2023/05/22 08:05:16;;;;;;;30.00;14.50;;;;;;;;;;5078345;28;20424;-68
2023/05/22 08:07:42;;;;;;;40.47;15.23;;;;;;;;;;5061287;28;20543;-68
2023/05/22 08:10:13;;;;;;;40.25;14.40;;;;;;;;;;5058260;28;20043;-68
2023/05/22 08:12:39;;;;;;;36.70;13.38;;;;;;;;;;5060356;28;20048;-68
2023/05/22 08:15:06;;;;;;;42.35;16.85;;;;;;;;;;5062200;28;20233;-68
2023/05/22 08:17:32;;;;;;;25.83;14.65;;;;;;;;;;5062239;28;20067;-68
2023/05/22 08:19:58;;;;;;;31.15;15.00;;;;;;;;;;5042823;28;20468;-68
2023/05/22 08:22:24;;;;;;;41.47;15.20;;;;;;;;;;5061115;28;20058;-68
2023/05/22 08:24:50;;;;;;;32.67;15.52;;;;;;;;;;5061974;28;20036;-68
2023/05/22 08:27:16;;;;;;;29.88;14.35;;;;;;;;;;5059398;28;20096;-68
2023/05/22 08:29:42;;;;;;;29.80;15.15;;;;;;;;;;5060431;28;20393;-68
2023/05/22 08:32:08;;;;;;;36.38;16.50;;;;;;;;;;5060119;28;20085;-68
2023/05/22 08:34:34;;;;;;;36.13;14.77;;;;;;;;;;5061857;28;20079;-68
2023/05/22 08:37:01;;;;;;;28.95;14.00;;;;;;;;;;5060805;28;20131;-68
2023/05/22 08:39:27;;;;;;;32.60;14.00;;;;;;;;;;5057725;28;20427;-68
2023/05/22 08:41:54;;;;;;;35.05;15.10;;;;;;;;;;5061079;28;20475;-68
2023/05/22 08:44:20;;;;;;;35.50;15.70;;;;;;;;;;5058089;28;20067;-68
2023/05/22 08:46:47;;;;;;;42.35;15.30;;;;;;;;;;5059863;28;20424;-68
2023/05/22 08:49:13;;;;;;;34.40;14.75;;;;;;;;;;5061489;28;20097;-68
2023/05/22 08:51:42;;;;;;;28.48;14.27;;;;;;;;;;5066831;28;20040;-69
2023/05/22 08:54:08;;;;;;;36.33;14.70;;;;;;;;;;5060528;28;20131;-68
2023/05/22 08:56:35;;;;;;;36.75;16.00;;;;;;;;;;5061364;28;20048;-68
2023/05/22 08:59:02;;;;;;;30.67;14.43;;;;;;;;;;5076122;28;20487;-67
2023/05/22 09:01:28;;;;;;;37.30;14.48;;;;;;;;;;5061052;28;20190;-68
2023/05/22 09:03:59;;;;;;;35.25;15.43;;;;;;;;;;5061594;28;20044;-68
2023/05/22 09:06:25;;;;;;;34.00;14.68;;;;;;;;;;5061792;28;20050;-68
2023/05/22 09:08:52;;;;;;;41.92;15.90;;;;;;;;;;5061103;28;20046;-68
2023/05/22 09:11:18;;;;;;;39.80;16.02;;;;;;;;;;5060641;28;20083;-75
2023/05/22 09:13:44;;;;;;;40.97;15.60;;;;;;;;;;5062449;28;20139;-74
2023/05/22 09:16:10;;;;;;;38.75;14.65;;;;;;;;;;5079002;28;20055;-74
2023/05/22 09:18:41;;;;;;;49.58;14.77;;;;;;;;;;5052150;28;20055;-74
2023/05/22 09:21:07;;;;;;;48.83;15.13;;;;;;;;;;5058054;28;20044;-68
2023/05/22 09:23:33;;;;;;;42.08;14.35;;;;;;;;;;5059613;28;20130;-68
2023/05/22 09:25:59;;;;;;;44.00;14.38;;;;;;;;;;5059674;28;20063;-68
2023/05/22 09:28:26;;;;;;;44.67;14.38;;;;;;;;;;5060974;28;20060;-68
2023/05/22 09:30:53;;;;;;;51.65;17.08;;;;;;;;;;5060714;28;20046;-68
2023/05/22 09:33:19;;;;;;;43.40;14.50;;;;;;;;;;5058678;28;20040;-68
2023/05/22 09:35:46;;;;;;;45.28;14.98;;;;;;;;;;5059876;28;20067;-68
2023/05/22 09:38:12;;;;;;;38.53;14.55;;;;;;;;;;5061863;28;22078;-68
2023/05/22 09:40:41;;;;;;;39.15;15.93;;;;;;;;;;5060821;28;20166;-72
2023/05/22 09:43:08;;;;;;;48.63;15.93;;;;;;;;;;5061972;28;20059;-73
2023/05/22 09:45:35;;;;;;;44.65;16.30;;;;;;;;;;5060855;28;20047;-73
2023/05/22 09:48:01;;;;;;;51.50;16.15;;;;;;;;;;5061847;28;20071;-72
2023/05/22 09:50:27;;;;;;;45.55;16.10;;;;;;;;;;5063253;28;20047;-72
2023/05/22 09:52:53;;;;;;;55.45;15.25;;;;;;;;;;5054149;28;20769;-78
2023/05/22 09:55:22;;;;;;;45.25;14.90;;;;;;;;;;5070766;28;20122;-77
2023/05/22 09:57:51;;;;;;;48.90;15.82;;;;;;;;;;5061459;28;20040;-78
2023/05/22 10:00:18;;;;;;;42.15;15.65;;;;;;;;;;5061185;28;20400;-76
2023/05/22 10:02:49;;;;;;;45.85;17.63;;;;;;;;;;5059730;28;20052;-78
2023/05/22 10:05:20;;;;;;;48.85;15.45;;;;;;;;;;5059028;28;20093;-78
2023/05/22 10:07:54;;;;;;;50.78;16.45;;;;;;;;;;5058201;28;20063;-78
2023/05/22 10:10:22;;;;;;;41.92;15.43;;;;;;;;;;5058816;28;20105;-78
2023/05/22 10:12:52;;;;;;;51.10;16.85;;;;;;;;;;5059215;28;20058;-78
2023/05/22 10:15:19;;;;;;;34.65;15.90;;;;;;;;;;5062922;28;20040;-78
2023/05/22 10:17:46;;;;;;;34.08;16.95;;;;;;;;;;5062228;28;20044;-78
2023/05/22 10:20:13;;;;;;;37.03;16.58;;;;;;;;;;5060681;28;20488;-78
2023/05/22 10:22:39;;;;;;;26.83;16.35;;;;;;;;;;5061663;28;20048;-78
2023/05/22 10:25:05;;;;;;;35.28;16.65;;;;;;;;;;5061573;28;20055;-78
2023/05/22 10:27:32;;;;;;;33.30;16.98;;;;;;;;;;5060999;28;20048;-77
2023/05/22 10:30:05;;;;;;;32.28;17.02;;;;;;;;;;5060716;28;20750;-78
2023/05/22 10:32:43;;;;;;;29.17;16.45;;;;;;;;;;5049243;28;20126;-78
2023/05/22 10:35:36;;;;;;;32.67;16.27;;;;;;;;;;5063975;28;20044;-78
2023/05/22 10:38:02;;;;;;;28.45;15.48;;;;;;;;;;5064579;28;20250;-78
2023/05/22 10:40:31;;;;;;;30.25;16.50;;;;;;;;;;5066055;28;20072;-78
2023/05/22 10:43:01;;;;;;;24.48;15.95;;;;;;;;;;5065890;28;20053;-78
2023/05/22 10:45:28;;;;;;;23.67;15.07;;;;;;;;;;5064363;28;20562;-78
2023/05/22 10:48:07;;;;;;;22.88;15.45;;;;;;;;;;5081199;28;20044;-78
2023/05/22 10:50:33;;;;;;;22.92;15.48;;;;;;;;;;5096699;28;20104;-78
2023/05/22 10:53:22;;;;;;;26.15;14.35;;;;;;;;;;5076339;28;20043;-78
2023/05/22 10:55:55;;;;;;;21.83;14.65;;;;;;;;;;5080682;28;20920;-78
2023/05/22 10:58:26;;;;;;;23.05;13.82;;;;;;;;;;5080232;28;20145;-78
2023/05/22 11:01:14;;;;;;;20.30;14.05;;;;;;;;;;5080230;28;20424;-78
2023/05/22 11:03:53;;;;;;;22.75;13.85;;;;;;;;;;5053528;28;20683;-78
2023/05/22 11:06:38;;;;;;;20.40;13.80;;;;;;;;;;5083990;28;20066;-79
2023/05/22 11:09:22;;;;;;;18.10;14.25;;;;;;;;;;5064767;28;20040;-78
2023/05/22 11:12:08;;;;;;;20.48;13.73;;;;;;;;;;5067411;28;20139;-79
2023/05/22 11:14:36;;;;;;;21.52;14.10;;;;;;;;;;5050415;28;20079;-78
2023/05/22 11:17:02;;;;;;;19.33;14.13;;;;;;;;;;5066330;28;22051;-78
2023/05/22 11:19:28;;;;;;;22.50;13.38;;;;;;;;;;5065896;28;20051;-77
2023/05/22 11:22:00;;;;;;;20.20;14.88;;;;;;;;;;5064786;28;20044;-77
2023/05/22 11:24:26;;;;;;;21.65;14.80;;;;;;;;;;5066421;28;20059;-77
2023/05/22 11:27:04;;;;;;;21.13;15.80;;;;;;;;;;5065390;28;20036;-77
2023/05/22 11:29:30;;;;;;;24.23;16.65;;;;;;;;;;5067411;28;20492;-77
2023/05/22 11:31:57;;;;;;;22.02;15.30;;;;;;;;;;5064079;28;20040;-78
2023/05/22 11:34:24;;;;;;;19.77;16.08;;;;;;;;;;5064268;28;20047;-77
2023/05/22 11:36:51;;;;;;;22.10;15.40;;;;;;;;;;5064434;28;22083;-78
2023/05/22 11:39:17;;;;;;;24.17;15.75;;;;;;;;;;5048813;28;20131;-78
2023/05/22 11:41:44;;;;;;;18.13;14.85;;;;;;;;;;5064129;28;20068;-78
2023/05/22 11:44:10;;;;;;;16.88;14.93;;;;;;;;;;5066678;28;20064;-78
2023/05/22 11:46:38;;;;;;;21.38;14.52;;;;;;;;;;5067446;28;20064;-78
2023/05/22 11:49:05;;;;;;;18.13;14.30;;;;;;;;;;5064766;28;20067;-78
2023/05/22 11:51:32;;;;;;;18.25;14.93;;;;;;;;;;5065078;28;20072;-73
2023/05/22 11:53:58;;;;;;;18.50;15.10;;;;;;;;;;5062657;28;20039;-74
2023/05/22 11:56:24;;;;;;;15.98;14.30;;;;;;;;;;5064376;28;20109;-73
2023/05/22 11:58:50;;;;;;;18.88;15.23;;;;;;;;;;5064390;28;20051;-73
2023/05/22 12:01:16;;;;;;;18.55;15.07;;;;;;;;;;5062653;28;22147;-74
2023/05/22 12:03:42;;;;;;;16.25;14.65;;;;;;;;;;5065414;28;20044;-73
2023/05/22 12:06:09;;;;;;;18.80;15.45;;;;;;;;;;5063675;28;20054;-73
2023/05/22 12:08:35;;;;;;;17.38;15.38;;;;;;;;;;5064529;28;20123;-73
2023/05/22 12:11:05;;;;;;;17.63;15.02;;;;;;;;;;5062655;28;20056;-73
2023/05/22 12:13:31;;;;;;;19.27;15.15;;;;;;;;;;5063536;28;20047;-74
2023/05/22 12:16:01;;;;;;;16.90;15.18;;;;;;;;;;5061930;28;20044;-74
2023/05/22 12:18:36;;;;;;;18.15;14.70;;;;;;;;;;5063983;28;20108;-74
2023/05/22 12:21:05;;;;;;;19.42;14.70;;;;;;;;;;5075950;28;21252;-74
2023/05/22 12:23:31;;;;;;;16.95;14.65;;;;;;;;;;5081388;28;20476;-74
2023/05/22 12:26:03;;;;;;;19.30;14.15;;;;;;;;;;5087958;28;20066;-74
2023/05/22 12:28:32;;;;;;;16.00;14.35;;;;;;;;;;5088011;28;20040;-75
2023/05/22 12:30:59;;;;;;;21.13;15.23;;;;;;;;;;5073740;28;20766;-74
2023/05/22 12:33:25;;;;;;;18.40;15.43;;;;;;;;;;5081943;28;20676;-75
2023/05/22 12:35:51;;;;;;;17.38;15.65;;;;;;;;;;5068728;28;20100;-74
2023/05/22 12:38:21;;;;;;;17.33;15.52;;;;;;;;;;5068683;28;21520;-75
2023/05/22 12:40:47;;;;;;;17.13;15.52;;;;;;;;;;5059053;28;20170;-74
2023/05/22 12:43:13;;;;;;;17.73;15.77;;;;;;;;;;5061829;28;20111;-74
2023/05/22 12:45:42;;;;;;;16.85;15.07;;;;;;;;;;5042319;28;20044;-75
2023/05/22 12:48:08;;;;;;;17.08;15.32;;;;;;;;;;5062622;28;20125;-75
2023/05/22 12:50:34;;;;;;;16.55;14.35;;;;;;;;;;5061779;28;20643;-75
2023/05/22 12:53:01;;;;;;;19.25;15.80;;;;;;;;;;5059370;28;20032;-75
2023/05/22 12:55:27;;;;;;;17.02;15.05;;;;;;;;;;5060132;28;20044;-75
2023/05/22 12:57:53;;;;;;;16.92;13.93;;;;;;;;;;5075077;28;20154;-74
2023/05/22 13:00:20;;;;;;;15.63;14.13;;;;;;;;;;5060831;28;20051;-74
2023/05/22 13:02:46;;;;;;;16.13;14.45;;;;;;;;;;5061206;28;20051;-75
2023/05/22 13:05:12;;;;;;;17.73;15.82;;;;;;;;;;5063344;28;20208;-75
2023/05/22 13:07:38;;;;;;;16.40;14.77;;;;;;;;;;5063482;28;20044;-74
2023/05/22 13:10:04;;;;;;;17.08;15.27;;;;;;;;;;5061687;28;20166;-75
2023/05/22 13:12:31;;;;;;;15.93;14.38;;;;;;;;;;5062148;28;20047;-75
2023/05/22 13:15:00;;;;;;;17.17;15.27;;;;;;;;;;5063508;28;20068;-74
2023/05/22 13:17:27;;;;;;;17.38;15.68;;;;;;;;;;5059319;28;20036;-75
2023/05/22 13:19:56;;;;;;;16.77;14.90;;;;;;;;;;5064813;28;20038;-75
2023/05/22 13:22:23;;;;;;;14.98;13.52;;;;;;;;;;5061086;28;20068;-75
2023/05/22 13:24:49;;;;;;;17.52;15.75;;;;;;;;;;5078724;28;20048;-75
2023/05/22 13:27:16;;;;;;;18.95;12.73;;;;;;;;;;5051571;28;20063;-74
2023/05/22 13:29:42;;;;;;;19.00;12.18;;;;;;;;;;5059261;28;20159;-75
2023/05/22 13:32:08;;;;;;;19.00;13.07;;;;;;;;;;5057555;28;20094;-74
2023/05/22 13:34:34;;;;;;;21.25;13.32;;;;;;;;;;5059071;28;20045;-74
2023/05/22 13:37:01;;;;;;;24.13;13.77;;;;;;;;;;5056876;28;20134;-74
2023/05/22 13:39:27;;;;;;;19.92;12.93;;;;;;;;;;5066193;28;20040;-74
2023/05/22 13:41:53;;;;;;;20.50;13.07;;;;;;;;;;5044492;28;20449;-74
2023/05/22 13:44:20;;;;;;;22.38;13.80;;;;;;;;;;5057975;28;20061;-74
2023/05/22 13:46:46;;;;;;;22.35;13.48;;;;;;;;;;5060868;28;20040;-74
2023/05/22 13:49:12;;;;;;;28.23;13.52;;;;;;;;;;5058472;28;20114;-74
2023/05/22 13:51:38;;;;;;;18.55;13.27;;;;;;;;;;5057117;28;20730;-74
2023/05/22 13:54:04;;;;;;;20.88;14.57;;;;;;;;;;5058249;28;20389;-75
2023/05/22 13:56:30;;;;;;;23.40;14.48;;;;;;;;;;5055783;28;20036;-74
2023/05/22 13:58:57;;;;;;;20.33;14.32;;;;;;;;;;5042664;28;20043;-74
2023/05/22 14:01:24;;;;;;;21.23;12.68;;;;;;;;;;5061788;28;20613;-74
2023/05/22 14:03:50;;;;;;;22.73;14.23;;;;;;;;;;5060407;28;20154;-74
2023/05/22 14:06:17;;;;;;;31.08;13.73;;;;;;;;;;5059998;28;20148;-74
2023/05/22 14:08:43;;;;;;;25.23;14.73;;;;;;;;;;5074081;28;20044;-74
2023/05/22 14:11:09;;;;;;;19.90;13.43;;;;;;;;;;5059961;28;20736;-74
2023/05/22 14:13:35;;;;;;;24.58;14.02;;;;;;;;;;5057634;28;20036;-74
2023/05/22 14:16:01;;;;;;;17.25;13.80;;;;;;;;;;5054479;28;20043;-74
2023/05/22 14:18:27;;;;;;;19.27;12.60;;;;;;;;;;5057127;28;20835;-74